Time;durP1;ratioP1;P1;durP2;ratioP2;P2;SDS_P1;SDS_P2;PMS_P1;PMS_P2;Temp;Humidity;BMP_temperature;BMP_pressure;BME280_temperature;BME280_humidity;BME280_pressure;Samples;Min_cycle;Max_cycle;Signal;HPM_P1;HPM_P2
2022/11/19 00:00:46;;;;;;;15.43;9.35;;;1.10;94.10;;;;;;5003350;28;20053;-73
2022/11/19 00:03:16;;;;;;;13.50;9.32;;;1.10;94.10;;;;;;5002763;28;20033;-73
2022/11/19 00:05:43;;;;;;;14.82;9.18;;;1.00;94.10;;;;;;5003761;28;20497;-72
2022/11/19 00:08:11;;;;;;;14.60;9.40;;;1.00;94.10;;;;;;5008455;28;20034;-72
2022/11/19 00:10:38;;;;;;;12.40;8.02;;;1.00;94.20;;;;;;5010516;28;20034;-73
2022/11/19 00:13:06;;;;;;;12.10;8.05;;;1.00;94.20;;;;;;5003663;28;20030;-72
2022/11/19 00:15:36;;;;;;;15.70;9.00;;;1.00;94.20;;;;;;5003860;28;20038;-72
2022/11/19 00:18:04;;;;;;;14.15;9.88;;;1.00;94.20;;;;;;5013857;28;20075;-71
2022/11/19 00:20:31;;;;;;;12.57;8.68;;;1.00;94.20;;;;;;5022287;28;20026;-72
2022/11/19 00:22:57;;;;;;;13.35;9.07;;;1.00;94.20;;;;;;5017216;28;20045;-72
2022/11/19 00:25:24;;;;;;;12.82;9.07;;;1.00;94.20;;;;;;5006342;28;20041;-71
2022/11/19 00:27:51;;;;;;;14.23;8.63;;;0.90;94.20;;;;;;5011260;28;20173;-72
2022/11/19 00:30:18;;;;;;;11.95;7.88;;;1.00;94.30;;;;;;5022592;28;20208;-72
2022/11/19 00:32:45;;;;;;;15.30;9.48;;;1.00;94.50;;;;;;5021966;28;20034;-72
2022/11/19 00:35:11;;;;;;;14.88;8.40;;;1.00;94.30;;;;;;5012448;28;20092;-72
2022/11/19 00:37:37;;;;;;;17.20;9.70;;;1.00;94.30;;;;;;5015961;28;20017;-72
2022/11/19 00:40:04;;;;;;;15.20;9.50;;;1.00;94.30;;;;;;5015893;28;20042;-72
2022/11/19 00:42:30;;;;;;;17.88;9.93;;;1.00;94.30;;;;;;5014798;28;20054;-72
2022/11/19 00:44:56;;;;;;;14.88;9.18;;;1.00;94.30;;;;;;5016677;28;20049;-72
2022/11/19 00:47:21;;;;;;;16.65;9.75;;;1.00;94.30;;;;;;5009152;28;20034;-72
2022/11/19 00:49:47;;;;;;;14.45;9.70;;;1.10;94.30;;;;;;5014065;28;20036;-72
2022/11/19 00:52:13;;;;;;;14.93;9.50;;;1.10;94.30;;;;;;5010536;28;20034;-73
2022/11/19 00:54:39;;;;;;;18.02;9.80;;;1.10;94.30;;;;;;5013939;28;20491;-72
2022/11/19 00:57:04;;;;;;;15.70;9.70;;;1.10;94.40;;;;;;5016245;28;20034;-72
2022/11/19 00:59:31;;;;;;;15.80;9.55;;;1.10;94.40;;;;;;5009341;28;20041;-72
2022/11/19 01:01:57;;;;;;;15.82;9.38;;;1.10;94.30;;;;;;5008858;28;20045;-72
2022/11/19 01:04:23;;;;;;;15.38;8.50;;;1.10;94.30;;;;;;5015512;28;20060;-72
2022/11/19 01:06:49;;;;;;;16.40;9.02;;;1.10;94.30;;;;;;5013343;28;20041;-72
2022/11/19 01:09:14;;;;;;;21.88;10.80;;;1.10;94.30;;;;;;5009299;28;20471;-72
2022/11/19 01:11:40;;;;;;;14.10;8.57;;;1.20;94.30;;;;;;5018304;28;20203;-72
2022/11/19 01:14:07;;;;;;;14.13;8.60;;;1.20;94.40;;;;;;5009700;28;20053;-72
2022/11/19 01:16:38;;;;;;;15.07;8.75;;;1.20;94.40;;;;;;5012530;28;20044;-71
2022/11/19 01:19:06;;;;;;;15.85;9.13;;;1.20;94.40;;;;;;5012389;28;20049;-72
2022/11/19 01:21:34;;;;;;;16.08;8.85;;;1.20;94.50;;;;;;5006315;28;20036;-72
2022/11/19 01:24:01;;;;;;;13.73;8.40;;;1.30;94.60;;;;;;5007570;28;20037;-72
2022/11/19 01:26:27;;;;;;;12.88;8.15;;;1.30;94.60;;;;;;5014694;28;20053;-71
2022/11/19 01:28:54;;;;;;;15.90;9.02;;;1.30;94.70;;;;;;5012988;28;20044;-71
2022/11/19 01:31:25;;;;;;;12.32;8.15;;;1.40;94.70;;;;;;5013662;28;20046;-73
2022/11/19 01:33:52;;;;;;;15.60;8.38;;;1.40;94.70;;;;;;5011233;28;20030;-72
2022/11/19 01:36:26;;;;;;;15.02;7.93;;;1.50;94.70;;;;;;5014626;28;20034;-71
2022/11/19 01:38:53;;;;;;;10.43;7.57;;;1.50;94.80;;;;;;5009370;28;20085;-73
2022/11/19 01:41:26;;;;;;;13.88;7.72;;;1.50;94.80;;;;;;5005992;28;20030;-72
2022/11/19 01:43:55;;;;;;;14.23;8.13;;;1.50;94.80;;;;;;5003765;28;20056;-72
2022/11/19 01:46:23;;;;;;;12.45;8.07;;;1.50;94.70;;;;;;5000918;28;20038;-72
2022/11/19 01:49:07;;;;;;;13.40;7.95;;;1.50;94.70;;;;;;5003401;28;20030;-72
2022/11/19 01:51:58;;;;;;;12.30;7.45;;;1.50;94.70;;;;;;5001614;28;20029;-72
2022/11/19 01:54:30;;;;;;;13.32;7.88;;;1.50;94.80;;;;;;5001900;28;20030;-73
2022/11/19 01:57:00;;;;;;;13.02;8.85;;;1.50;94.80;;;;;;5019133;28;20030;-72
2022/11/19 01:59:27;;;;;;;15.50;9.15;;;1.50;94.70;;;;;;5004611;28;20109;-73
2022/11/19 02:01:53;;;;;;;14.20;9.23;;;1.40;94.70;;;;;;5002957;28;20029;-72
2022/11/19 02:04:20;;;;;;;19.17;12.32;;;1.40;94.70;;;;;;5003747;28;20026;-72
2022/11/19 02:06:50;;;;;;;22.90;13.35;;;1.30;94.70;;;;;;5002506;28;20045;-72
2022/11/19 02:09:18;;;;;;;23.00;11.90;;;1.30;94.70;;;;;;5002875;28;20022;-73
2022/11/19 02:12:13;;;;;;;16.83;11.07;;;1.30;94.70;;;;;;4995926;28;20038;-73
2022/11/19 02:15:03;;;;;;;17.85;10.13;;;1.20;94.70;;;;;;5004218;28;20041;-72
2022/11/19 02:17:49;;;;;;;17.27;10.00;;;1.20;94.70;;;;;;5003845;28;20026;-73
2022/11/19 02:20:34;;;;;;;15.50;8.68;;;1.10;94.70;;;;;;5005817;28;20026;-72
2022/11/19 02:23:30;;;;;;;13.40;8.95;;;1.20;94.80;;;;;;5007854;28;20041;-72
2022/11/19 02:26:24;;;;;;;14.65;8.73;;;1.10;94.80;;;;;;5008897;28;20041;-72
2022/11/19 02:29:05;;;;;;;17.38;8.73;;;1.10;94.80;;;;;;5003288;28;20061;-73
2022/11/19 02:31:45;;;;;;;15.15;9.25;;;1.10;94.80;;;;;;5004117;28;20049;-72
2022/11/19 02:34:21;;;;;;;15.90;8.18;;;1.10;94.90;;;;;;5002543;28;20038;-73
2022/11/19 02:37:01;;;;;;;14.65;8.50;;;1.10;94.90;;;;;;5003500;28;20026;-72
2022/11/19 02:39:42;;;;;;;14.80;8.88;;;1.00;94.90;;;;;;5003525;28;20034;-72
2022/11/19 02:42:26;;;;;;;10.82;7.20;;;1.10;94.90;;;;;;5005542;28;20056;-73
2022/11/19 02:44:57;;;;;;;12.25;7.68;;;1.10;94.90;;;;;;5003329;28;20046;-73
2022/11/19 02:47:32;;;;;;;12.02;7.88;;;1.00;94.90;;;;;;5004298;28;20053;-72
2022/11/19 02:50:14;;;;;;;12.27;7.95;;;1.00;94.90;;;;;;5004511;28;20068;-72
2022/11/19 02:52:42;;;;;;;13.05;7.22;;;1.00;95.00;;;;;;5004774;28;20030;-72
2022/11/19 02:55:16;;;;;;;11.80;8.10;;;1.10;95.00;;;;;;5006985;28;20030;-72
2022/11/19 02:57:48;;;;;;;12.07;7.38;;;1.10;95.10;;;;;;5006444;28;20108;-72
2022/11/19 03:06:25;;;;;;;12.27;7.28;;;1.10;95.10;;;;;;5004909;28;19934;-72
2022/11/19 03:08:51;;;;;;;12.40;7.00;;;1.10;95.10;;;;;;5010841;28;20057;-72
2022/11/19 03:11:24;;;;;;;10.52;7.50;;;1.10;95.10;;;;;;5001923;28;20358;-73
2022/11/19 03:17:15;;;;;;;10.68;7.25;;;1.00;95.20;;;;;;5003449;28;20030;-72
2022/11/19 03:19:59;;;;;;;12.93;7.03;;;1.10;95.30;;;;;;5002753;28;21640;-72
2022/11/19 03:22:39;;;;;;;11.35;6.93;;;1.10;95.30;;;;;;5005533;28;20048;-72
2022/11/19 03:25:39;;;;;;;10.25;7.38;;;1.00;95.50;;;;;;5003297;28;20037;-72
2022/11/19 03:28:11;;;;;;;11.70;7.40;;;1.10;95.40;;;;;;5004980;28;20151;-72
2022/11/19 03:30:39;;;;;;;10.60;7.53;;;1.10;95.40;;;;;;5005449;28;20053;-73
2022/11/19 03:33:31;;;;;;;12.70;7.35;;;1.10;95.40;;;;;;5003899;28;20389;-72
2022/11/19 03:36:34;;;;;;;11.65;6.78;;;1.00;95.30;;;;;;5004106;28;20723;-70
2022/11/19 03:39:06;;;;;;;11.00;7.03;;;1.10;95.40;;;;;;5005647;28;20477;-71
2022/11/19 03:41:34;;;;;;;10.57;7.00;;;1.00;95.30;;;;;;5002225;28;20048;-71
2022/11/19 03:44:07;;;;;;;11.38;7.20;;;1.00;95.40;;;;;;5005735;28;20153;-71
2022/11/19 03:46:35;;;;;;;13.23;7.68;;;1.10;95.40;;;;;;5003909;28;20557;-72
2022/11/19 03:49:03;;;;;;;11.00;7.15;;;1.10;95.50;;;;;;5004574;28;20382;-71
2022/11/19 03:51:37;;;;;;;10.00;6.88;;;1.10;95.50;;;;;;5003136;28;20370;-72
2022/11/19 03:54:03;;;;;;;11.82;7.05;;;1.10;95.50;;;;;;5002804;28;20370;-71
2022/11/19 03:56:31;;;;;;;11.00;6.53;;;1.10;95.50;;;;;;5003075;28;20022;-71
2022/11/19 03:58:58;;;;;;;12.07;7.72;;;1.10;95.50;;;;;;5001457;28;20502;-72
2022/11/19 04:01:24;;;;;;;15.25;9.73;;;1.10;95.50;;;;;;5001507;28;20108;-71
2022/11/19 04:04:35;;;;;;;13.07;8.10;;;1.10;95.40;;;;;;5004272;28;20041;-71
2022/11/19 04:06:35;;;;;;;12.35;7.57;;;1.10;95.50;;;;;;5002173;28;20064;-72
2022/11/19 04:09:01;;;;;;;12.60;6.18;;;1.10;95.50;;;;;;5004050;28;20490;-72
2022/11/19 04:11:26;;;;;;;9.90;6.63;;;1.10;95.50;;;;;;5004422;28;20034;-72
2022/11/19 04:13:52;;;;;;;12.55;6.95;;;1.10;95.50;;;;;;5001007;28;20105;-71
2022/11/19 04:16:17;;;;;;;10.30;6.30;;;1.10;95.50;;;;;;5004458;28;20033;-74
2022/11/19 04:18:43;;;;;;;11.75;7.30;;;1.10;95.50;;;;;;5004664;28;20862;-74
2022/11/19 04:21:09;;;;;;;9.82;6.53;;;1.10;95.50;;;;;;5004101;28;20041;-74
2022/11/19 04:23:34;;;;;;;11.48;6.50;;;1.10;95.50;;;;;;5003757;28;20032;-73
2022/11/19 04:26:00;;;;;;;10.45;6.43;;;1.20;95.50;;;;;;4999612;28;20597;-73
2022/11/19 04:28:26;;;;;;;10.07;6.18;;;1.20;95.50;;;;;;5004194;28;20117;-73
2022/11/19 04:30:51;;;;;;;10.43;6.00;;;1.20;95.50;;;;;;5001311;28;20030;-74
2022/11/19 04:33:17;;;;;;;10.35;6.40;;;1.20;95.50;;;;;;5002458;28;20581;-74
2022/11/19 04:35:46;;;;;;;12.13;6.75;;;1.20;95.50;;;;;;5002806;28;20025;-73
2022/11/19 04:38:13;;;;;;;11.40;6.63;;;1.20;95.50;;;;;;5003718;28;20038;-72
2022/11/19 04:40:38;;;;;;;13.60;6.60;;;1.20;95.40;;;;;;5002647;28;20040;-72
2022/11/19 04:43:04;;;;;;;12.07;6.90;;;1.20;95.40;;;;;;5002137;28;20030;-73
2022/11/19 04:45:30;;;;;;;11.35;6.57;;;1.20;95.50;;;;;;5008680;28;20065;-72
2022/11/19 04:47:56;;;;;;;11.95;6.78;;;1.20;95.50;;;;;;5012351;28;20033;-72
2022/11/19 04:50:22;;;;;;;13.40;7.07;;;1.20;95.50;;;;;;5011606;28;20068;-73
2022/11/19 04:52:47;;;;;;;10.80;6.53;;;1.20;95.50;;;;;;5011314;28;20034;-72
2022/11/19 04:55:13;;;;;;;9.30;5.47;;;1.20;95.50;;;;;;5012418;28;20575;-72
2022/11/19 04:57:39;;;;;;;9.80;6.57;;;1.20;95.50;;;;;;5012117;28;20034;-72
2022/11/19 05:00:05;;;;;;;14.98;6.90;;;1.30;95.50;;;;;;5012708;28;20025;-72
2022/11/19 05:02:31;;;;;;;8.60;5.93;;;1.30;95.40;;;;;;5007848;28;20484;-72
2022/11/19 05:04:57;;;;;;;11.48;6.20;;;1.30;95.40;;;;;;5003372;28;20092;-73
2022/11/19 05:07:23;;;;;;;8.68;5.78;;;1.30;95.40;;;;;;5017629;28;20611;-71
2022/11/19 05:09:48;;;;;;;8.82;5.38;;;1.30;95.50;;;;;;5000829;28;20208;-72
2022/11/19 05:12:14;;;;;;;9.80;6.32;;;1.30;95.40;;;;;;5005821;28;20034;-71
2022/11/19 05:14:40;;;;;;;10.13;6.20;;;1.30;95.40;;;;;;5000208;28;20037;-73
2022/11/19 05:17:06;;;;;;;8.55;5.75;;;1.30;95.40;;;;;;4999706;28;20022;-72
2022/11/19 05:19:31;;;;;;;10.10;5.70;;;1.30;95.30;;;;;;4999567;28;20025;-72
2022/11/19 05:21:57;;;;;;;8.10;5.60;;;1.30;95.30;;;;;;5002394;28;20077;-71
2022/11/19 05:24:22;;;;;;;9.77;5.53;;;1.30;95.40;;;;;;5002844;28;20033;-71
2022/11/19 05:26:48;;;;;;;10.32;6.05;;;1.30;95.40;;;;;;5002597;28;20046;-71
2022/11/19 05:29:14;;;;;;;12.07;5.95;;;1.30;95.40;;;;;;5000897;28;20030;-71
2022/11/19 05:31:39;;;;;;;10.35;6.45;;;1.30;95.40;;;;;;4999980;28;20034;-72
2022/11/19 05:34:05;;;;;;;10.00;6.22;;;1.40;95.40;;;;;;5002906;28;20091;-71
2022/11/19 05:36:31;;;;;;;8.75;5.60;;;1.50;95.40;;;;;;5001969;28;20036;-73
2022/11/19 05:38:57;;;;;;;8.75;5.30;;;1.40;95.30;;;;;;5000913;28;20393;-73
2022/11/19 05:41:23;;;;;;;8.98;5.65;;;1.40;95.30;;;;;;4998765;28;20034;-71
2022/11/19 05:43:48;;;;;;;9.50;5.43;;;1.30;95.30;;;;;;5001933;28;20049;-72
2022/11/19 05:46:14;;;;;;;7.55;5.38;;;1.40;95.30;;;;;;4998728;28;20109;-72
2022/11/19 05:48:39;;;;;;;8.43;5.35;;;1.40;95.20;;;;;;4999355;28;20065;-72
2022/11/19 05:51:05;;;;;;;8.65;4.90;;;1.40;95.20;;;;;;5000344;28;20661;-71
2022/11/19 05:53:32;;;;;;;8.05;4.78;;;1.40;95.20;;;;;;5005092;28;20391;-72
2022/11/19 05:55:57;;;;;;;9.98;5.70;;;1.40;95.20;;;;;;5000193;28;20048;-72
2022/11/19 05:58:23;;;;;;;7.50;4.80;;;1.40;95.20;;;;;;5001397;28;20034;-71
2022/11/19 06:00:57;;;;;;;7.82;5.70;;;1.40;95.20;;;;;;5003139;28;20116;-72
2022/11/19 06:03:24;;;;;;;10.45;5.78;;;1.40;95.10;;;;;;5000688;28;20041;-72
2022/11/19 06:05:50;;;;;;;9.30;5.82;;;1.40;95.30;;;;;;5001051;28;20045;-72
2022/11/19 06:08:16;;;;;;;9.00;5.85;;;1.40;95.30;;;;;;4999963;28;20030;-72
2022/11/19 06:10:42;;;;;;;8.52;5.47;;;1.40;95.10;;;;;;5004922;28;20033;-73
2022/11/19 06:13:08;;;;;;;12.35;5.70;;;1.40;95.10;;;;;;5000595;28;20532;-71
2022/11/19 06:15:34;;;;;;;9.88;6.28;;;1.40;95.00;;;;;;5003309;28;20441;-72
2022/11/19 06:18:01;;;;;;;11.55;5.97;;;1.40;95.00;;;;;;5004329;28;20799;-72
2022/11/19 06:20:26;;;;;;;11.98;5.70;;;1.40;95.00;;;;;;5000096;28;20026;-71
2022/11/19 06:22:53;;;;;;;9.00;5.63;;;1.40;95.00;;;;;;5004593;28;20037;-72
2022/11/19 06:25:19;;;;;;;9.88;6.75;;;1.40;95.00;;;;;;5005577;28;20088;-72
2022/11/19 06:27:44;;;;;;;9.68;6.38;;;1.40;95.00;;;;;;5005262;28;20500;-72
2022/11/19 06:30:11;;;;;;;10.45;5.57;;;1.40;95.00;;;;;;5007378;28;20036;-73
2022/11/19 06:32:36;;;;;;;11.48;6.68;;;1.40;95.00;;;;;;5005398;28;20032;-70
2022/11/19 06:35:03;;;;;;;9.38;5.80;;;1.40;94.90;;;;;;5003257;28;22032;-77
2022/11/19 06:37:28;;;;;;;9.75;6.00;;;1.50;94.90;;;;;;5006123;28;20030;-78
2022/11/19 06:39:54;;;;;;;9.88;6.20;;;1.40;94.90;;;;;;5004484;28;20374;-69
2022/11/19 06:42:36;;;;;;;10.02;6.28;;;1.40;94.90;;;;;;5006600;28;20079;-70
2022/11/19 06:45:13;;;;;;;10.13;7.00;;;1.40;94.90;;;;;;5002188;28;20157;-70
2022/11/19 06:47:39;;;;;;;12.93;5.97;;;1.40;94.90;;;;;;5004323;28;20129;-71
2022/11/19 06:50:08;;;;;;;10.85;7.35;;;1.40;95.00;;;;;;5007313;28;20057;-70
2022/11/19 06:52:34;;;;;;;11.95;6.28;;;1.40;95.00;;;;;;5003885;28;20493;-71
2022/11/19 06:55:01;;;;;;;7.95;5.97;;;1.40;94.90;;;;;;5004013;28;20030;-71
2022/11/19 06:57:27;;;;;;;11.32;6.95;;;1.50;94.90;;;;;;5003161;28;20026;-71
2022/11/19 06:59:53;;;;;;;10.32;6.50;;;1.50;94.90;;;;;;5002902;28;20481;-72
2022/11/19 07:02:19;;;;;;;10.55;6.45;;;1.50;94.90;;;;;;5004043;28;20096;-69
2022/11/19 07:04:44;;;;;;;10.00;6.57;;;1.50;94.90;;;;;;5006426;28;20026;-69
2022/11/19 07:07:10;;;;;;;11.70;6.72;;;1.60;94.90;;;;;;5003074;28;20501;-70
2022/11/19 07:09:35;;;;;;;8.75;6.47;;;1.50;95.10;;;;;;5003575;28;20025;-70
2022/11/19 07:12:01;;;;;;;10.75;6.18;;;1.60;94.90;;;;;;5005377;28;20042;-70
2022/11/19 07:14:27;;;;;;;9.07;6.18;;;1.60;94.90;;;;;;5007705;28;20029;-71
2022/11/19 07:16:54;;;;;;;9.70;5.70;;;1.60;94.90;;;;;;5004984;28;20552;-71
2022/11/19 07:19:20;;;;;;;11.25;5.72;;;1.70;94.90;;;;;;5004427;28;20033;-70
2022/11/19 07:21:47;;;;;;;8.50;5.95;;;1.70;94.90;;;;;;5005921;28;20029;-69
2022/11/19 07:24:16;;;;;;;7.72;5.75;;;1.70;94.90;;;;;;5004618;28;20043;-70
2022/11/19 07:26:42;;;;;;;6.93;5.07;;;1.80;95.10;;;;;;5003712;28;20050;-70
2022/11/19 07:29:11;;;;;;;7.53;5.53;;;1.80;94.90;;;;;;5003600;28;20014;-70
2022/11/19 07:31:36;;;;;;;10.73;6.75;;;1.80;94.80;;;;;;5005966;28;20045;-70
2022/11/19 07:34:05;;;;;;;8.50;5.60;;;1.90;94.80;;;;;;5003866;28;20025;-70
2022/11/19 07:36:31;;;;;;;7.13;4.78;;;1.90;94.70;;;;;;5005196;28;20033;-69
2022/11/19 07:38:57;;;;;;;7.75;5.32;;;2.00;94.70;;;;;;5005113;28;20389;-70
2022/11/19 07:44:07;;;;;;;9.65;6.07;;;2.00;94.60;;;;;;4999197;28;20056;-69
2022/11/19 07:46:33;;;;;;;9.63;5.68;;;2.10;94.60;;;;;;5002177;28;20050;-69
2022/11/19 07:48:59;;;;;;;10.38;5.65;;;2.10;94.60;;;;;;5001130;28;20108;-69
2022/11/19 07:51:26;;;;;;;9.40;5.95;;;2.10;94.50;;;;;;5002860;28;20025;-68
2022/11/19 07:53:53;;;;;;;9.13;5.90;;;2.20;94.50;;;;;;5001457;28;20374;-69
2022/11/19 07:56:19;;;;;;;7.50;5.65;;;2.20;94.50;;;;;;4998417;28;20041;-69
2022/11/19 07:58:45;;;;;;;9.15;6.38;;;2.30;94.50;;;;;;5001157;28;20030;-68
2022/11/19 08:01:16;;;;;;;8.10;5.90;;;2.30;94.50;;;;;;5001770;28;20034;-69
2022/11/19 08:03:42;;;;;;;8.13;5.75;;;2.40;94.50;;;;;;5001882;28;20042;-67
2022/11/19 08:06:07;;;;;;;9.70;5.95;;;2.40;94.40;;;;;;5002384;28;20041;-68
2022/11/19 08:08:33;;;;;;;7.53;4.72;;;2.50;94.40;;;;;;4999947;28;20034;-68
2022/11/19 08:11:07;;;;;;;12.15;5.20;;;2.60;94.30;;;;;;5004274;28;20025;-69
2022/11/19 08:13:33;;;;;;;7.32;4.82;;;2.60;94.20;;;;;;4998980;28;20038;-69
2022/11/19 08:16:00;;;;;;;8.55;5.55;;;2.70;94.30;;;;;;4999790;28;20045;-69
2022/11/19 08:18:28;;;;;;;7.88;5.50;;;2.80;94.20;;;;;;5001896;28;20033;-69
2022/11/19 08:20:54;;;;;;;7.10;4.72;;;2.80;94.10;;;;;;5001486;28;20505;-69
2022/11/19 08:23:22;;;;;;;7.72;5.53;;;2.80;94.10;;;;;;5001863;28;20026;-68
2022/11/19 08:25:51;;;;;;;6.05;4.65;;;2.90;94.10;;;;;;5000575;28;20136;-68
2022/11/19 08:28:17;;;;;;;7.05;4.55;;;2.90;94.00;;;;;;4989384;28;20112;-68
2022/11/19 08:30:44;;;;;;;9.38;5.45;;;3.00;93.90;;;;;;5001711;28;20129;-69
2022/11/19 08:33:10;;;;;;;8.07;4.85;;;2.90;93.70;;;;;;4999776;28;20034;-68
2022/11/19 08:35:36;;;;;;;8.30;4.70;;;3.00;93.70;;;;;;5002168;28;20083;-69
2022/11/19 08:38:02;;;;;;;8.35;4.88;;;3.00;93.50;;;;;;5002131;28;20057;-69
2022/11/19 08:40:27;;;;;;;7.47;4.90;;;3.00;93.50;;;;;;4999798;28;20114;-68
2022/11/19 08:42:59;;;;;;;9.55;4.90;;;3.00;93.50;;;;;;5001103;28;20046;-69
2022/11/19 08:45:37;;;;;;;11.52;5.20;;;3.10;93.60;;;;;;5002184;28;20081;-68
2022/11/19 08:48:09;;;;;;;8.02;5.13;;;3.20;93.60;;;;;;4997745;28;20041;-68
2022/11/19 08:50:35;;;;;;;8.68;5.13;;;3.20;93.60;;;;;;4999887;28;20129;-68
2022/11/19 08:53:03;;;;;;;8.43;5.25;;;3.30;93.60;;;;;;4998279;28;20099;-68
2022/11/19 08:55:30;;;;;;;7.57;4.88;;;3.40;93.50;;;;;;5001638;28;20018;-68
2022/11/19 08:58:06;;;;;;;7.90;4.55;;;3.50;93.40;;;;;;5000457;28;20639;-68
2022/11/19 09:00:34;;;;;;;6.63;4.35;;;3.50;93.30;;;;;;4999328;28;20056;-68
2022/11/19 09:02:59;;;;;;;9.10;5.30;;;3.60;93.30;;;;;;5001603;28;20037;-68
2022/11/19 09:05:26;;;;;;;5.93;4.75;;;3.70;93.30;;;;;;5002677;28;20396;-67
2022/11/19 09:07:54;;;;;;;7.57;4.80;;;3.80;93.20;;;;;;5001539;28;20033;-69
2022/11/19 09:10:19;;;;;;;6.65;4.95;;;3.80;93.10;;;;;;5002984;28;20048;-67
2022/11/19 09:12:45;;;;;;;8.05;4.50;;;3.90;93.10;;;;;;4999978;28;20489;-68
2022/11/19 09:15:11;;;;;;;6.82;4.35;;;3.90;92.90;;;;;;5002730;28;20037;-68
2022/11/19 09:17:37;;;;;;;6.75;4.47;;;3.90;92.80;;;;;;5001479;28;20098;-70
2022/11/19 09:20:04;;;;;;;6.35;4.30;;;3.90;92.60;;;;;;5001110;28;20453;-68
2022/11/19 09:22:31;;;;;;;5.43;3.75;;;3.90;92.70;;;;;;5001285;28;20034;-68
2022/11/19 09:24:57;;;;;;;6.40;3.97;;;4.00;92.70;;;;;;5001860;28;20397;-68
2022/11/19 09:27:22;;;;;;;6.32;4.32;;;4.00;92.60;;;;;;5000528;28;20040;-68
2022/11/19 09:29:48;;;;;;;7.47;5.10;;;4.00;92.50;;;;;;5001268;28;20068;-69
2022/11/19 09:32:13;;;;;;;8.50;4.40;;;4.10;92.50;;;;;;4999922;28;20038;-69
2022/11/19 09:34:40;;;;;;;5.97;4.22;;;4.00;92.40;;;;;;5001174;28;20152;-69
2022/11/19 09:37:09;;;;;;;7.88;4.63;;;4.00;92.40;;;;;;5002065;28;20505;-68
2022/11/19 09:39:35;;;;;;;7.22;4.40;;;4.00;92.10;;;;;;5002506;28;20119;-68
2022/11/19 09:42:01;;;;;;;7.45;4.30;;;4.10;92.30;;;;;;5002672;28;20030;-67
2022/11/19 09:44:33;;;;;;;6.63;4.40;;;4.10;92.20;;;;;;5000337;28;20815;-68
2022/11/19 09:47:16;;;;;;;5.80;3.58;;;4.20;92.20;;;;;;5001784;28;20064;-68
2022/11/19 09:49:46;;;;;;;7.30;4.15;;;4.20;92.20;;;;;;5001871;28;20033;-68
2022/11/19 09:52:19;;;;;;;9.50;4.35;;;4.20;91.90;;;;;;4998378;28;20749;-68
2022/11/19 09:54:52;;;;;;;7.40;3.90;;;4.30;91.80;;;;;;5002036;28;20116;-68
2022/11/19 09:57:30;;;;;;;5.00;3.20;;;4.30;91.70;;;;;;5001148;28;20022;-68
2022/11/19 10:00:00;;;;;;;5.53;3.97;;;4.40;91.40;;;;;;4998901;28;20510;-69
2022/11/19 10:02:26;;;;;;;5.55;3.55;;;4.40;91.60;;;;;;4998962;28;20640;-68
2022/11/19 10:04:52;;;;;;;5.65;3.50;;;4.50;91.40;;;;;;5001852;28;22021;-69
2022/11/19 10:07:43;;;;;;;7.22;4.50;;;4.50;91.40;;;;;;5000732;28;20033;-68
2022/11/19 10:10:45;;;;;;;16.65;10.23;;;4.50;91.20;;;;;;5000600;28;20653;-68
2022/11/19 10:13:36;;;;;;;9.93;6.65;;;4.50;91.20;;;;;;5015736;28;20072;-68
2022/11/19 10:16:21;;;;;;;7.13;4.28;;;4.50;91.10;;;;;;5003707;28;20034;-69
2022/11/19 10:19:00;;;;;;;8.52;3.90;;;4.50;91.10;;;;;;5000732;28;20025;-69
2022/11/19 10:21:58;;;;;;;4.50;3.40;;;4.50;91.00;;;;;;5003270;28;20045;-68
2022/11/19 10:24:49;;;;;;;5.43;3.42;;;4.60;90.90;;;;;;5001527;28;20149;-67
2022/11/19 10:27:34;;;;;;;4.05;3.17;;;4.60;90.70;;;;;;5018780;28;20045;-68
2022/11/19 10:30:05;;;;;;;4.38;2.80;;;4.60;90.70;;;;;;5018839;28;20029;-68
2022/11/19 10:32:33;;;;;;;4.75;3.15;;;4.60;90.60;;;;;;5000918;28;20092;-68
2022/11/19 10:35:07;;;;;;;5.30;3.30;;;4.60;90.10;;;;;;5004767;28;20034;-68
2022/11/19 10:37:46;;;;;;;5.30;3.20;;;4.50;90.20;;;;;;5001905;28;20038;-68
2022/11/19 10:40:20;;;;;;;4.93;3.13;;;4.50;90.30;;;;;;5001933;28;20042;-68
2022/11/19 10:43:04;;;;;;;5.55;3.08;;;4.60;90.40;;;;;;5002332;28;20029;-68
2022/11/19 10:45:30;;;;;;;3.78;2.78;;;4.60;90.40;;;;;;5001925;28;20494;-69
2022/11/19 10:48:16;;;;;;;5.75;3.53;;;4.70;90.40;;;;;;5000080;28;20029;-69
2022/11/19 10:50:41;;;;;;;5.22;3.15;;;4.70;90.20;;;;;;5002541;28;20092;-68
2022/11/19 10:53:21;;;;;;;11.73;7.28;;;4.60;89.80;;;;;;5001760;28;20456;-68
2022/11/19 10:55:57;;;;;;;8.20;5.95;;;4.70;89.90;;;;;;4998639;28;20561;-66
2022/11/19 10:58:44;;;;;;;21.65;9.02;;;4.70;90.00;;;;;;5003605;28;20037;-68
2022/11/19 11:01:24;;;;;;;30.17;14.25;;;4.70;89.80;;;;;;5000215;28;20164;-69
2022/11/19 11:04:23;;;;;;;73.57;33.35;;;4.80;89.60;;;;;;5001616;28;20026;-70
2022/11/19 11:06:57;;;;;;;31.83;13.30;;;4.90;89.60;;;;;;5001170;28;20033;-70
2022/11/19 11:09:42;;;;;;;11.45;5.35;;;4.90;89.30;;;;;;5002322;28;20026;-69
2022/11/19 11:15:14;;;;;;;7.03;3.75;;;5.00;88.30;;;;;;5003872;28;20017;-72
2022/11/19 11:17:41;;;;;;;5.95;4.15;;;4.90;89.10;;;;;;5004743;28;20080;-70
2022/11/19 11:20:21;;;;;;;7.80;4.55;;;4.90;89.10;;;;;;5003357;28;20029;-69
2022/11/19 11:23:00;;;;;;;7.25;4.20;;;4.90;89.00;;;;;;5005772;28;20044;-70
2022/11/19 11:25:27;;;;;;;7.28;3.78;;;4.90;88.60;;;;;;5004676;28;20061;-70
2022/11/19 11:28:16;;;;;;;7.47;3.97;;;4.90;88.90;;;;;;5004497;28;20025;-68
2022/11/19 11:31:03;;;;;;;7.38;3.75;;;5.00;88.70;;;;;;5002919;28;20141;-70
2022/11/19 11:33:28;;;;;;;7.05;4.25;;;5.00;88.90;;;;;;5001926;28;20033;-71
2022/11/19 11:36:10;;;;;;;8.40;4.72;;;5.00;88.90;;;;;;5006588;28;20156;-70
2022/11/19 11:38:48;;;;;;;7.65;4.22;;;5.00;89.10;;;;;;5005313;28;20034;-70
2022/11/19 11:41:17;;;;;;;8.23;4.13;;;4.90;88.90;;;;;;5004899;28;20029;-71
2022/11/19 11:44:01;;;;;;;9.60;4.75;;;5.00;89.20;;;;;;5003207;28;20687;-71
2022/11/19 11:46:37;;;;;;;6.40;4.05;;;4.90;89.30;;;;;;5001405;28;20122;-70
2022/11/19 11:49:05;;;;;;;5.75;3.60;;;4.90;89.60;;;;;;5005807;28;20022;-70
2022/11/19 11:51:38;;;;;;;5.97;3.58;;;4.90;89.70;;;;;;5003036;28;20041;-70
2022/11/19 11:54:20;;;;;;;6.68;4.13;;;4.90;90.00;;;;;;5005702;28;20041;-70
2022/11/19 11:56:46;;;;;;;19.60;12.27;;;4.90;89.90;;;;;;5003707;28;20108;-69
2022/11/19 11:59:24;;;;;;;9.70;5.88;;;4.90;90.10;;;;;;5003043;28;20040;-68
2022/11/19 12:02:18;;;;;;;6.82;4.03;;;5.00;90.30;;;;;;5003818;28;20040;-70
2022/11/19 12:04:44;;;;;;;7.00;3.90;;;5.00;90.30;;;;;;5001736;28;20626;-69
2022/11/19 12:07:53;;;;;;;5.68;4.05;;;5.10;90.40;;;;;;5000347;28;20042;-69
2022/11/19 12:10:31;;;;;;;5.65;4.30;;;5.10;90.40;;;;;;5006354;28;20029;-69
2022/11/19 12:13:23;;;;;;;28.00;16.30;;;5.20;90.50;;;;;;5004835;28;20034;-69
2022/11/19 12:16:05;;;;;;;11.95;6.90;;;5.20;90.70;;;;;;5001909;28;20077;-69
2022/11/19 12:18:38;;;;;;;9.40;5.20;;;5.20;90.70;;;;;;5003502;28;20088;-69
2022/11/19 12:21:24;;;;;;;7.60;4.88;;;5.20;90.70;;;;;;5004336;28;20038;-69
2022/11/19 12:24:27;;;;;;;5.43;4.00;;;5.20;90.80;;;;;;5004209;28;20057;-69
2022/11/19 12:27:12;;;;;;;8.45;4.95;;;5.30;90.80;;;;;;5003625;28;20030;-69
2022/11/19 12:29:55;;;;;;;6.40;4.07;;;5.30;90.80;;;;;;5005045;28;20030;-69
2022/11/19 12:32:52;;;;;;;6.53;4.43;;;5.30;90.80;;;;;;5019021;28;20367;-67
2022/11/19 12:35:45;;;;;;;8.18;4.03;;;5.40;90.90;;;;;;5002817;28;20049;-67
2022/11/19 12:38:28;;;;;;;7.95;5.30;;;5.40;90.90;;;;;;5001206;28;20034;-67
2022/11/19 12:41:20;;;;;;;6.65;4.50;;;5.40;91.00;;;;;;5004211;28;20026;-66
2022/11/19 12:44:05;;;;;;;7.20;4.90;;;5.50;91.00;;;;;;5002138;28;20026;-68
2022/11/19 12:47:09;;;;;;;6.70;4.65;;;5.50;91.10;;;;;;5003153;28;20049;-68
2022/11/19 12:50:13;;;;;;;8.95;4.50;;;5.60;91.20;;;;;;5001067;28;20216;-68
2022/11/19 12:52:45;;;;;;;5.88;4.07;;;5.60;91.10;;;;;;5003335;28;20077;-68
2022/11/19 12:55:20;;;;;;;6.60;4.78;;;5.60;91.10;;;;;;5003969;28;20026;-68
2022/11/19 12:58:05;;;;;;;;;;;5.60;91.10;;;;;;5005159;28;20029;-68
2022/11/19 13:00:36;;;;;;;5.57;3.75;;;5.60;90.90;;;;;;5002562;28;19968;-68
2022/11/19 13:03:06;;;;;;;6.93;4.72;;;5.60;91.20;;;;;;5003556;28;20034;-68
2022/11/19 13:06:11;;;;;;;7.93;5.22;;;5.60;91.30;;;;;;5003866;28;20042;-68
2022/11/19 13:08:43;;;;;;;7.55;4.30;;;5.70;91.40;;;;;;5001346;28;20045;-69
2022/11/19 13:11:18;;;;;;;8.48;4.22;;;5.70;91.40;;;;;;5002933;28;20128;-68
2022/11/19 13:13:46;;;;;;;;;;;5.70;91.50;;;;;;5003337;28;20037;-68
2022/11/19 13:16:15;;;;;;;7.20;4.18;;;5.70;91.40;;;;;;5001806;28;19909;-67
2022/11/19 13:18:45;;;;;;;6.65;4.25;;;5.60;91.50;;;;;;5002460;28;20567;-68
2022/11/19 13:21:49;;;;;;;6.28;4.43;;;5.60;91.60;;;;;;5003530;28;20470;-69
2022/11/19 13:24:14;;;;;;;7.43;4.68;;;5.60;91.70;;;;;;4993655;28;20069;-66
2022/11/19 13:26:41;;;;;;;8.02;4.55;;;5.50;91.70;;;;;;5001420;28;20170;-67
2022/11/19 13:29:14;;;;;;;7.00;5.00;;;5.50;91.80;;;;;;5000851;28;20028;-67
2022/11/19 13:32:09;;;;;;;6.85;4.63;;;5.40;91.90;;;;;;4999235;28;20022;-67